createdAt,value
2016-10-14T00:00:06.490Z,11.72
2016-10-14T00:01:06.824Z,11.72
2016-10-14T00:02:07.158Z,11.62
2016-10-14T00:03:06.860Z,11.65
2016-10-14T00:04:06.882Z,11.63
2016-10-14T00:05:06.896Z,11.62
2016-10-14T00:06:06.914Z,11.66
2016-10-14T00:07:06.935Z,11.75
2016-10-14T00:08:06.955Z,11.66
2016-10-14T00:09:06.973Z,11.65
2016-10-14T00:10:06.991Z,11.62
2016-10-14T00:11:07.005Z,11.62
2016-10-14T00:12:07.345Z,11.62
2016-10-14T00:13:06.732Z,11.62
2016-10-14T00:14:07.067Z,11.63
2016-10-14T00:15:06.767Z,11.63
2016-10-14T00:16:07.103Z,11.62
2016-10-14T00:17:07.119Z,11.63
2016-10-14T00:18:07.455Z,11.63
2016-10-14T00:19:07.472Z,11.6
2016-10-14T00:20:06.878Z,11.75
2016-10-14T00:21:06.883Z,11.73
2016-10-14T00:22:07.213Z,11.72
2016-10-14T00:23:07.234Z,11.73
2016-10-14T00:24:06.933Z,11.8
2016-10-14T00:25:07.274Z,11.78
2016-10-14T00:26:06.980Z,11.73
2016-10-14T00:27:06.988Z,11.69
2016-10-14T00:28:07.326Z,11.7
2016-10-14T00:29:07.340Z,11.57
2016-10-14T00:30:07.365Z,11.68
2016-10-14T00:31:07.379Z,11.65
2016-10-14T00:32:07.400Z,11.55
2016-10-14T00:33:07.106Z,11.6
2016-10-14T00:34:07.750Z,11.65
2016-10-14T00:35:07.771Z,11.72
2016-10-14T00:36:07.475Z,11.73
2016-10-14T00:37:07.494Z,11.66
2016-10-14T00:38:07.192Z,11.77
2016-10-14T00:39:07.850Z,11.75
2016-10-14T00:40:07.868Z,11.8
2016-10-14T00:41:07.565Z,11.78
2016-10-14T00:42:07.272Z,11.87
2016-10-14T00:43:07.605Z,11.88
2016-10-14T00:44:07.304Z,11.77
2016-10-14T00:45:07.957Z,11.69
2016-10-14T00:46:08.011Z,11.69
2016-10-14T00:47:08.015Z,11.63
2016-10-14T00:48:08.025Z,11.7
2016-10-14T00:49:07.724Z,11.72
2016-10-14T00:50:07.440Z,11.69
2016-10-14T00:51:07.435Z,11.81
2016-10-14T00:52:07.773Z,11.68
2016-10-14T00:53:07.475Z,11.68
2016-10-14T00:54:08.124Z,11.7
2016-10-14T00:55:08.143Z,11.68
2016-10-14T00:56:08.160Z,11.72
2016-10-14T00:57:07.864Z,11.75
2016-10-14T00:58:07.565Z,11.8
2016-10-14T00:59:07.901Z,11.69
2016-10-14T01:00:08.233Z,11.68
2016-10-14T01:01:07.622Z,11.72
2016-10-14T01:02:07.641Z,11.72
2016-10-14T01:03:08.001Z,11.65
2016-10-14T01:04:08.023Z,11.63
2016-10-14T01:05:07.721Z,11.6
2016-10-14T01:06:07.715Z,11.66
2016-10-14T01:07:08.047Z,11.72
2016-10-14T01:08:07.748Z,11.69
2016-10-14T01:09:07.772Z,11.75
2016-10-14T01:10:08.104Z,11.78
2016-10-14T01:11:08.123Z,11.77
2016-10-14T01:12:08.145Z,11.78
2016-10-14T01:13:07.846Z,11.77
2016-10-14T01:14:08.498Z,11.75
2016-10-14T01:15:08.509Z,11.78
2016-10-14T01:16:08.218Z,11.69
2016-10-14T01:17:08.236Z,11.55
2016-10-14T01:18:08.259Z,11.6
2016-10-14T01:19:08.595Z,11.62
2016-10-14T01:20:07.976Z,11.7
2016-10-14T01:21:08.310Z,11.69
2016-10-14T01:22:08.327Z,11.72
2016-10-14T01:23:08.666Z,11.7
2016-10-14T01:24:08.366Z,11.72
2016-10-14T01:25:08.703Z,11.66
2016-10-14T01:26:08.404Z,11.72
2016-10-14T01:27:08.106Z,11.7
2016-10-14T01:28:08.441Z,11.81
2016-10-14T01:29:08.144Z,11.73
2016-10-14T01:30:08.167Z,11.75
2016-10-14T01:31:08.184Z,11.77
2016-10-14T01:32:08.841Z,11.69
2016-10-14T01:33:08.217Z,11.59
2016-10-14T01:34:08.233Z,11.62
2016-10-14T01:35:08.571Z,11.65
2016-10-14T01:36:08.280Z,11.63
2016-10-14T01:37:08.931Z,11.62
2016-10-14T01:38:08.310Z,11.62
2016-10-14T01:39:08.327Z,11.57
2016-10-14T01:40:08.867Z,11.55
2016-10-14T01:41:08.678Z,11.62
2016-10-14T01:42:08.386Z,11.62
2016-10-14T01:43:08.724Z,11.63
2016-10-14T01:44:08.749Z,11.65
2016-10-14T01:45:08.439Z,11.66
2016-10-14T01:46:08.456Z,11.57
2016-10-14T01:47:08.803Z,11.59
2016-10-14T01:48:09.131Z,11.62
2016-10-14T01:49:08.828Z,11.63
2016-10-14T01:50:08.846Z,11.52
2016-10-14T01:51:08.549Z,11.51
2016-10-14T01:52:09.206Z,11.59
2016-10-14T01:53:08.589Z,11.52
2016-10-14T01:54:08.920Z,11.52
2016-10-14T01:55:08.941Z,11.4
2016-10-14T01:56:09.274Z,11.48
2016-10-14T01:57:08.976Z,11.48
2016-10-14T01:58:09.309Z,11.45
2016-10-14T01:59:08.698Z,11.37
2016-10-14T02:00:09.029Z,11.35
2016-10-14T02:01:09.050Z,11.43
2016-10-14T02:02:09.087Z,11.37
2016-10-14T02:03:09.540Z,11.4
2016-10-14T02:04:08.792Z,11.32
2016-10-14T02:05:09.128Z,11.32
2016-10-14T02:06:09.143Z,11.37
2016-10-14T02:07:08.845Z,11.41
2016-10-14T02:08:09.179Z,11.37
2016-10-14T02:09:08.882Z,11.37
2016-10-14T02:10:09.210Z,11.52
2016-10-14T02:11:09.235Z,11.44
2016-10-14T02:12:09.251Z,11.55
2016-10-14T02:13:09.272Z,11.55
2016-10-14T02:14:08.972Z,11.57
2016-10-14T02:15:09.303Z,11.6
2016-10-14T02:16:09.325Z,11.43
2016-10-14T02:17:09.340Z,11.44
2016-10-14T02:18:09.411Z,11.62
2016-10-14T02:19:09.396Z,11.57
2016-10-14T02:20:09.086Z,11.51
2016-10-14T02:21:09.499Z,11.47
2016-10-14T02:22:09.118Z,11.4
2016-10-14T02:23:09.456Z,11.51
2016-10-14T02:24:09.157Z,11.54
2016-10-14T02:25:09.495Z,11.52
2016-10-14T02:26:09.510Z,11.55
2016-10-14T02:27:09.531Z,11.5
2016-10-14T02:28:09.236Z,11.47
2016-10-14T02:29:09.247Z,11.6
2016-10-14T02:30:09.286Z,11.48
2016-10-14T02:31:09.287Z,11.55
2016-10-14T02:32:09.946Z,11.51
2016-10-14T02:33:09.647Z,11.55
2016-10-14T02:34:09.338Z,11.51
2016-10-14T02:35:09.371Z,11.45
2016-10-14T02:36:10.014Z,11.47
2016-10-14T02:37:09.733Z,11.51
2016-10-14T02:38:09.423Z,11.57
2016-10-14T02:39:10.148Z,11.6
2016-10-14T02:40:09.455Z,11.52
2016-10-14T02:41:10.101Z,11.6
2016-10-14T02:42:09.513Z,11.62
2016-10-14T02:43:09.818Z,11.55
2016-10-14T02:44:09.862Z,11.52
2016-10-14T02:45:09.586Z,11.48
2016-10-14T02:46:09.558Z,11.54
2016-10-14T02:47:09.901Z,11.59
2016-10-14T02:48:09.918Z,11.51
2016-10-14T02:49:09.936Z,11.59
2016-10-14T02:50:09.948Z,11.48
2016-10-14T02:51:09.653Z,11.54
2016-10-14T02:52:09.992Z,11.4
2016-10-14T02:53:10.011Z,11.37
2016-10-14T02:54:10.339Z,11.27
2016-10-14T02:55:10.384Z,11.23
2016-10-14T02:56:10.065Z,11.22
2016-10-14T02:57:10.398Z,11.08
2016-10-14T02:58:09.781Z,11.08
2016-10-14T02:59:10.134Z,11.08
2016-10-14T03:00:10.449Z,11
2016-10-14T03:01:10.151Z,11.05
2016-10-14T03:02:10.507Z,11.07
2016-10-14T03:03:10.236Z,11.04
2016-10-14T03:04:10.221Z,11.07
2016-10-14T03:05:09.917Z,11.1
2016-10-14T03:06:10.574Z,11.1
2016-10-14T03:07:10.267Z,11.04
2016-10-14T03:08:10.279Z,11.07
2016-10-14T03:09:10.304Z,11.04
2016-10-14T03:10:10.324Z,11.07
2016-10-14T03:11:10.331Z,11.04
2016-10-14T03:12:10.354Z,11.12
2016-10-14T03:13:10.054Z,11.12
2016-10-14T03:14:10.384Z,11.04
2016-10-14T03:15:10.423Z,11.04
2016-10-14T03:16:10.429Z,11.11
2016-10-14T03:17:10.444Z,11.08
2016-10-14T03:18:10.483Z,11.12
2016-10-14T03:19:10.478Z,11.23
2016-10-14T03:20:10.813Z,11.32
2016-10-14T03:21:10.197Z,11.3
2016-10-14T03:22:10.219Z,11.19
2016-10-14T03:23:10.237Z,11.25
2016-10-14T03:24:10.567Z,11.19
2016-10-14T03:25:10.290Z,11.23
2016-10-14T03:26:10.926Z,11.27
2016-10-14T03:27:10.937Z,11.22
2016-10-14T03:28:10.334Z,11.32
2016-10-14T03:29:10.659Z,11.25
2016-10-14T03:30:10.682Z,11.23
2016-10-14T03:31:10.381Z,11.23
2016-10-14T03:32:10.716Z,11.22
2016-10-14T03:33:10.425Z,11.26
2016-10-14T03:34:10.752Z,11.3
2016-10-14T03:35:10.768Z,11.19
2016-10-14T03:36:10.788Z,11.26
2016-10-14T03:37:10.489Z,11.23
2016-10-14T03:38:10.827Z,11.32
2016-10-14T03:39:10.525Z,11.35
2016-10-14T03:40:10.554Z,11.37
2016-10-14T03:41:10.891Z,11.41
2016-10-14T03:42:10.587Z,11.4
2016-10-14T03:43:11.225Z,11.41
2016-10-14T03:44:10.620Z,11.41
2016-10-14T03:45:10.953Z,11.4
2016-10-14T03:46:10.653Z,11.4
2016-10-14T03:47:10.678Z,11.33
2016-10-14T03:48:10.688Z,11.37
2016-10-14T03:49:11.021Z,11.3
2016-10-14T03:50:11.356Z,11.29
2016-10-14T03:51:11.056Z,11.32
2016-10-14T03:52:11.077Z,11.29
2016-10-14T03:53:10.776Z,11.27
2016-10-14T03:54:11.436Z,11.26
2016-10-14T03:55:11.446Z,11.22
2016-10-14T03:56:10.833Z,11.27
2016-10-14T03:57:10.867Z,11.23
2016-10-14T03:58:11.183Z,11.19
2016-10-14T03:59:10.893Z,11.14
2016-10-14T04:00:11.222Z,11.11
2016-10-14T04:01:10.925Z,11.15
2016-10-14T04:02:11.571Z,11.11
2016-10-14T04:03:10.957Z,11.19
2016-10-14T04:04:11.292Z,11.22
2016-10-14T04:05:11.312Z,11.25
2016-10-14T04:06:11.336Z,11.1
2016-10-14T04:07:11.028Z,11.19
2016-10-14T04:08:11.047Z,11.07
2016-10-14T04:09:11.386Z,11.11
2016-10-14T04:10:11.086Z,11.12
2016-10-14T04:11:11.731Z,11.08
2016-10-14T04:12:11.147Z,11.07
2016-10-14T04:13:11.140Z,11.04
2016-10-14T04:14:11.155Z,11.05
2016-10-14T04:15:11.804Z,11.14
2016-10-14T04:16:11.513Z,11.15
2016-10-14T04:17:11.527Z,11.12
2016-10-14T04:18:11.544Z,11.02
2016-10-14T04:19:11.245Z,11.08
2016-10-14T04:20:11.265Z,11.02
2016-10-14T04:21:11.923Z,11.07
2016-10-14T04:22:11.622Z,11.05
2016-10-14T04:23:11.635Z,11.05
2016-10-14T04:24:11.343Z,11.08
2016-10-14T04:25:11.674Z,11.04
2016-10-14T04:26:11.372Z,11.05
2016-10-14T04:27:12.023Z,11.07
2016-10-14T04:28:11.729Z,11.12
2016-10-14T04:29:11.428Z,11.17
2016-10-14T04:30:11.759Z,11.02
2016-10-14T04:31:11.784Z,11.12
2016-10-14T04:32:11.804Z,11.15
2016-10-14T04:33:11.500Z,11.11
2016-10-14T04:34:12.148Z,11.12
2016-10-14T04:35:12.167Z,11.1
2016-10-14T04:36:12.195Z,11.12
2016-10-14T04:37:11.572Z,11.12
2016-10-14T04:38:11.905Z,11.07
2016-10-14T04:39:11.924Z,10.97
2016-10-14T04:40:11.946Z,10.94
2016-10-14T04:41:12.275Z,10.82
2016-10-14T04:42:12.289Z,10.94
2016-10-14T04:43:12.318Z,10.97
2016-10-14T04:44:12.042Z,10.93
2016-10-14T04:45:11.716Z,10.86
2016-10-14T04:46:11.737Z,10.93
2016-10-14T04:47:12.072Z,10.89
2016-10-14T04:48:12.083Z,10.93
2016-10-14T04:49:12.429Z,10.96
2016-10-14T04:50:11.806Z,10.94
2016-10-14T04:51:12.163Z,10.99
2016-10-14T04:52:11.851Z,10.96
2016-10-14T04:53:11.859Z,10.92
2016-10-14T04:54:12.501Z,10.99
2016-10-14T04:55:12.548Z,10.94
2016-10-14T04:56:11.924Z,10.99
2016-10-14T04:57:12.252Z,10.93
2016-10-14T04:58:12.606Z,10.9
2016-10-14T04:59:11.971Z,10.9
2016-10-14T05:00:12.300Z,10.92
2016-10-14T05:01:12.004Z,10.97
2016-10-14T05:02:12.034Z,10.89
2016-10-14T05:03:12.369Z,10.89
2016-10-14T05:04:12.059Z,10.81
2016-10-14T05:05:12.710Z,10.86
2016-10-14T05:06:12.409Z,10.9
2016-10-14T05:07:12.429Z,10.89
2016-10-14T05:08:12.457Z,10.86
2016-10-14T05:09:12.782Z,10.84
2016-10-14T05:10:12.484Z,10.87
2016-10-14T05:11:12.525Z,10.82
2016-10-14T05:12:12.516Z,10.84
2016-10-14T05:13:12.530Z,10.89
2016-10-14T05:14:12.546Z,10.84
2016-10-14T05:15:12.265Z,10.84
2016-10-14T05:16:12.585Z,10.81
2016-10-14T05:17:12.923Z,10.74
2016-10-14T05:18:12.623Z,10.75
2016-10-14T05:19:12.953Z,10.82
2016-10-14T05:20:12.341Z,10.82
2016-10-14T05:21:12.359Z,10.71
2016-10-14T05:22:12.718Z,10.84
2016-10-14T05:23:12.402Z,10.72
2016-10-14T05:24:12.743Z,10.81
2016-10-14T05:25:12.755Z,10.81
2016-10-14T05:26:12.767Z,10.81
2016-10-14T05:27:12.495Z,10.81
2016-10-14T05:28:12.811Z,10.84
2016-10-14T05:29:13.130Z,10.84
2016-10-14T05:30:12.839Z,10.86
2016-10-14T05:31:12.856Z,10.86
2016-10-14T05:32:12.562Z,10.87
2016-10-14T05:33:12.572Z,10.86
2016-10-14T05:34:12.913Z,10.81
2016-10-14T05:35:12.943Z,10.76
2016-10-14T05:36:12.629Z,10.78
2016-10-14T05:37:12.646Z,10.74
2016-10-14T05:38:12.976Z,10.82
2016-10-14T05:39:13.320Z,10.81
2016-10-14T05:40:12.698Z,10.89
2016-10-14T05:41:12.725Z,10.87
2016-10-14T05:42:13.054Z,10.9
2016-10-14T05:43:12.752Z,10.9
2016-10-14T05:44:12.777Z,10.96
2016-10-14T05:45:12.788Z,10.9
2016-10-14T05:46:13.445Z,10.94
2016-10-14T05:47:12.823Z,10.99
2016-10-14T05:48:13.182Z,10.9
2016-10-14T05:49:12.861Z,10.96
2016-10-14T05:50:12.873Z,10.93
2016-10-14T05:51:12.898Z,10.96
2016-10-14T05:52:13.231Z,10.97
2016-10-14T05:53:13.250Z,10.96
2016-10-14T05:54:13.267Z,10.89
2016-10-14T05:55:12.968Z,10.86
2016-10-14T05:56:13.305Z,10.86
2016-10-14T05:57:13.006Z,10.78
2016-10-14T05:58:13.672Z,10.78
2016-10-14T05:59:13.362Z,10.79
2016-10-14T06:00:13.376Z,10.86
2016-10-14T06:01:13.394Z,10.76
2016-10-14T06:02:13.101Z,10.72
2016-10-14T06:03:13.430Z,10.76
2016-10-14T06:04:13.443Z,10.75
2016-10-14T06:05:13.153Z,10.84
2016-10-14T06:06:13.804Z,10.75
2016-10-14T06:07:13.496Z,10.69
2016-10-14T06:08:13.519Z,10.74
2016-10-14T06:09:13.885Z,10.74
2016-10-14T06:10:13.559Z,10.81
2016-10-14T06:11:13.253Z,10.79
2016-10-14T06:12:13.584Z,10.74
2016-10-14T06:13:13.289Z,10.74
2016-10-14T06:14:13.621Z,10.79
2016-10-14T06:15:13.321Z,10.68
2016-10-14T06:16:13.342Z,10.64
2016-10-14T06:17:13.361Z,10.59
2016-10-14T06:18:13.696Z,10.61
2016-10-14T06:19:13.715Z,10.6
2016-10-14T06:20:14.044Z,10.63
2016-10-14T06:21:13.744Z,10.53
2016-10-14T06:22:14.107Z,10.51
2016-10-14T06:23:13.781Z,10.46
2016-10-14T06:24:14.115Z,10.51
2016-10-14T06:25:13.835Z,10.53
2016-10-14T06:26:14.148Z,10.59
2016-10-14T06:27:14.175Z,10.6
2016-10-14T06:28:13.865Z,10.69
2016-10-14T06:29:13.885Z,10.61
2016-10-14T06:30:14.222Z,10.64
2016-10-14T06:31:14.247Z,10.59
2016-10-14T06:32:13.624Z,10.61
2016-10-14T06:33:13.959Z,10.64
2016-10-14T06:34:13.973Z,10.72
2016-10-14T06:35:13.672Z,10.76
2016-10-14T06:36:14.018Z,10.69
2016-10-14T06:37:14.026Z,10.79
2016-10-14T06:38:13.730Z,10.78
2016-10-14T06:39:14.377Z,10.72
2016-10-14T06:40:14.392Z,10.78
2016-10-14T06:41:14.094Z,10.72
2016-10-14T06:42:13.800Z,10.6
2016-10-14T06:43:14.133Z,10.59
2016-10-14T06:44:14.151Z,10.56
2016-10-14T06:45:13.853Z,10.6
2016-10-14T06:46:14.520Z,10.57
2016-10-14T06:47:13.890Z,10.46
2016-10-14T06:48:14.219Z,10.44
2016-10-14T06:49:14.241Z,10.37
2016-10-14T06:50:14.255Z,10.38
2016-10-14T06:51:14.593Z,10.46
2016-10-14T06:52:14.289Z,10.4
2016-10-14T06:53:14.309Z,10.49
2016-10-14T06:54:14.342Z,10.49
2016-10-14T06:55:14.344Z,10.48
2016-10-14T06:56:14.677Z,10.63
2016-10-14T06:57:14.380Z,10.59
2016-10-14T06:58:14.714Z,10.59
2016-10-14T06:59:14.419Z,10.76
2016-10-14T07:00:14.753Z,10.76
2016-10-14T07:01:14.457Z,10.72
2016-10-14T07:02:14.467Z,10.75
2016-10-14T07:03:14.176Z,10.59
2016-10-14T07:04:14.513Z,10.68
2016-10-14T07:05:14.522Z,10.61
2016-10-14T07:06:14.227Z,10.64
2016-10-14T07:07:14.241Z,10.51
2016-10-14T07:08:14.264Z,10.48
2016-10-14T07:09:14.932Z,10.6
2016-10-14T07:10:14.628Z,10.69
2016-10-14T07:11:14.318Z,10.74
2016-10-14T07:12:14.338Z,10.76
2016-10-14T07:13:14.976Z,10.82
2016-10-14T07:14:14.991Z,10.82
2016-10-14T07:15:14.706Z,10.86
2016-10-14T07:16:14.425Z,10.76
2016-10-14T07:17:14.432Z,10.72
2016-10-14T07:18:14.753Z,10.72
2016-10-14T07:19:15.083Z,10.76
2016-10-14T07:20:14.790Z,10.87
2016-10-14T07:21:14.487Z,10.87
2016-10-14T07:22:15.144Z,10.92
2016-10-14T07:23:15.163Z,10.9
2016-10-14T07:24:14.857Z,10.9
2016-10-14T07:25:14.873Z,10.97
2016-10-14T07:26:14.891Z,10.9
2016-10-14T07:27:15.230Z,10.94
2016-10-14T07:28:14.932Z,10.93
2016-10-14T07:29:14.943Z,10.89
2016-10-14T07:30:14.963Z,11.05
2016-10-14T07:31:14.988Z,11.07
2016-10-14T07:32:14.999Z,11.08
2016-10-14T07:33:15.333Z,11.04
2016-10-14T07:34:14.720Z,10.97
2016-10-14T07:35:14.736Z,11.1
2016-10-14T07:36:14.756Z,11.1
2016-10-14T07:37:15.090Z,11.12
2016-10-14T07:38:15.123Z,11.1
2016-10-14T07:39:15.438Z,11.08
2016-10-14T07:40:15.143Z,11.17
2016-10-14T07:41:14.845Z,11.1
2016-10-14T07:42:15.496Z,11.08
2016-10-14T07:43:15.197Z,11.17
2016-10-14T07:44:15.214Z,11.23
2016-10-14T07:45:15.233Z,11.33
2016-10-14T07:46:15.254Z,11.44
2016-10-14T07:47:15.155Z,11.47
2016-10-14T07:48:14.967Z,11.4
2016-10-14T07:49:15.311Z,11.5
2016-10-14T07:50:15.004Z,11.51
2016-10-14T07:51:15.656Z,11.48
2016-10-14T07:52:15.041Z,11.55
2016-10-14T07:53:15.377Z,11.45
2016-10-14T07:54:15.397Z,11.6
2016-10-14T07:55:30.296Z,11.55
2016-10-14T07:56:15.753Z,11.62
2016-10-14T07:57:15.455Z,11.65
2016-10-14T07:58:15.469Z,11.62
2016-10-14T07:59:15.795Z,11.68
2016-10-14T08:00:15.507Z,11.72
2016-10-14T08:01:15.537Z,11.77
2016-10-14T08:02:15.539Z,11.83
2016-10-14T08:03:15.557Z,11.83
2016-10-14T08:04:15.894Z,11.95
2016-10-14T08:05:15.605Z,11.99
2016-10-14T08:06:15.930Z,12.09
2016-10-14T08:07:15.317Z,12.18
2016-10-14T08:08:15.652Z,12.2
2016-10-14T08:09:15.666Z,12.28
2016-10-14T08:10:15.686Z,12.27
2016-10-14T08:11:15.705Z,12.28
2016-10-14T08:12:15.405Z,12.27
2016-10-14T08:13:15.743Z,12.18
2016-10-14T08:14:15.760Z,12.15
2016-10-14T08:15:16.113Z,12.27
2016-10-14T08:16:15.805Z,12.37
2016-10-14T08:17:15.819Z,12.45
2016-10-14T08:18:15.521Z,12.58
2016-10-14T08:19:16.175Z,12.64
2016-10-14T08:20:15.871Z,12.57
2016-10-14T08:21:15.579Z,12.58
2016-10-14T08:22:16.230Z,12.64
2016-10-14T08:23:15.614Z,12.62
2016-10-14T08:24:15.633Z,12.75
2016-10-14T08:25:15.654Z,12.61
2016-10-14T08:26:15.985Z,12.79
2016-10-14T08:27:16.330Z,12.68
2016-10-14T08:28:16.341Z,12.83
2016-10-14T08:29:16.052Z,12.86
2016-10-14T08:30:16.063Z,13.03
2016-10-14T08:31:16.084Z,13.08
2016-10-14T08:32:15.802Z,13.3
2016-10-14T08:33:16.120Z,13.28
2016-10-14T08:34:16.454Z,13.12
2016-10-14T08:35:16.159Z,13.27
2016-10-14T08:36:16.496Z,13.31
2016-10-14T08:37:16.211Z,13.3
2016-10-14T08:38:16.227Z,13.33
2016-10-14T08:39:15.934Z,13.31
2016-10-14T08:40:16.256Z,13.3
2016-10-14T08:41:16.284Z,13.44
2016-10-14T08:42:16.293Z,13.49
2016-10-14T08:43:16.320Z,13.47
2016-10-14T08:44:16.336Z,13.41
2016-10-14T08:45:16.356Z,13.44
2016-10-14T08:46:16.387Z,13.37
2016-10-14T08:47:16.395Z,13.46
2016-10-14T08:48:16.730Z,13.59
2016-10-14T08:49:16.437Z,13.6
2016-10-14T08:50:16.154Z,13.68
2016-10-14T08:51:16.471Z,13.75
2016-10-14T08:52:16.494Z,13.79
2016-10-14T08:53:16.831Z,13.83
2016-10-14T08:54:16.536Z,13.96
2016-10-14T08:55:16.551Z,13.79
2016-10-14T08:56:16.572Z,13.89
2016-10-14T08:57:16.274Z,14.03
2016-10-14T08:58:16.932Z,14.03
2016-10-14T08:59:16.945Z,14
2016-10-14T09:00:16.336Z,14.07
2016-10-14T09:01:16.993Z,14.05
2016-10-14T09:02:16.693Z,14.17
2016-10-14T09:03:17.030Z,14.22
2016-10-14T09:04:16.415Z,14.17
2016-10-14T09:05:16.757Z,14.22
2016-10-14T09:06:16.455Z,14.07
2016-10-14T09:07:16.483Z,13.99
2016-10-14T09:08:16.502Z,14.08
2016-10-14T09:09:17.150Z,14.11
2016-10-14T09:10:16.554Z,14.04
2016-10-14T09:11:16.571Z,14.04
2016-10-14T09:12:17.237Z,13.97
2016-10-14T09:13:16.596Z,14
2016-10-14T09:14:17.252Z,14.07
2016-10-14T09:15:16.641Z,14.12
2016-10-14T09:16:16.991Z,14.18
2016-10-14T09:17:16.997Z,14.26
2016-10-14T09:18:16.703Z,14.15
2016-10-14T09:19:16.720Z,14.25
2016-10-14T09:20:17.052Z,14.2
2016-10-14T09:21:17.391Z,14.33
2016-10-14T09:22:17.094Z,14.32
2016-10-14T09:23:17.117Z,14.3
2016-10-14T09:24:17.146Z,14.36
2016-10-14T09:25:17.466Z,14.32
2016-10-14T09:26:17.511Z,14.32
2016-10-14T09:27:16.879Z,14.54
2016-10-14T09:28:16.925Z,14.44
2016-10-14T09:29:17.234Z,14.4
2016-10-14T09:30:16.941Z,14.33
2016-10-14T09:31:17.078Z,14.45
2016-10-14T09:32:17.297Z,14.45
2016-10-14T09:33:17.487Z,14.5
2016-10-14T09:34:17.656Z,14.47
2016-10-14T09:35:17.361Z,14.55
2016-10-14T09:36:17.703Z,14.5
2016-10-14T09:37:17.083Z,14.54
2016-10-14T09:38:17.420Z,14.5
2016-10-14T09:39:17.435Z,14.63
2016-10-14T09:40:17.176Z,14.59
2016-10-14T09:41:17.793Z,14.51
2016-10-14T09:42:17.183Z,14.58
2016-10-14T09:43:17.206Z,14.53
2016-10-14T09:44:17.539Z,14.55
2016-10-14T09:45:17.245Z,14.65
2016-10-14T09:46:17.611Z,14.62
2016-10-14T09:47:17.918Z,14.59
2016-10-14T09:48:18.141Z,14.63
2016-10-14T09:49:17.339Z,14.5
2016-10-14T09:50:17.699Z,14.47
2016-10-14T09:51:17.702Z,14.44
2016-10-14T09:52:17.712Z,14.51
2016-10-14T09:53:17.414Z,14.65
2016-10-14T09:54:17.763Z,14.59
2016-10-14T09:55:17.459Z,14.63
2016-10-14T09:56:17.479Z,14.72
2016-10-14T09:57:17.806Z,14.77
2016-10-14T09:58:17.514Z,14.84
2016-10-14T09:59:17.859Z,14.91
2016-10-14T10:00:18.190Z,14.84
2016-10-14T10:01:17.888Z,14.89
2016-10-14T10:02:17.920Z,14.88
2016-10-14T10:03:18.245Z,15.02
2016-10-14T10:04:17.949Z,14.86
2016-10-14T10:05:18.297Z,14.89
2016-10-14T10:06:18.313Z,15
2016-10-14T10:07:18.414Z,15
2016-10-14T10:08:18.030Z,15.02
2016-10-14T10:09:17.739Z,15.03
2016-10-14T10:10:18.086Z,15.03
2016-10-14T10:11:18.092Z,15.04
2016-10-14T10:12:17.798Z,15.02
2016-10-14T10:13:18.137Z,15.09
2016-10-14T10:14:18.481Z,15.21
2016-10-14T10:15:17.860Z,15.21
2016-10-14T10:16:18.520Z,15.36
2016-10-14T10:17:17.900Z,15.36
2016-10-14T10:18:18.238Z,15.36
2016-10-14T10:19:18.257Z,15.43
2016-10-14T10:20:18.282Z,15.47
2016-10-14T10:21:18.302Z,15.54
2016-10-14T10:22:18.321Z,15.54
2016-10-14T10:23:18.023Z,15.57
2016-10-14T10:24:18.382Z,15.55
2016-10-14T10:25:18.079Z,15.7
2016-10-14T10:26:18.421Z,15.75
2016-10-14T10:27:18.426Z,15.88
2016-10-14T10:28:18.789Z,15.82
2016-10-14T10:29:18.151Z,15.8
2016-10-14T10:30:18.174Z,15.84
2016-10-14T10:31:18.845Z,15.97
2016-10-14T10:32:18.535Z,15.94
2016-10-14T10:33:18.869Z,16.02
2016-10-14T10:34:18.574Z,15.98
2016-10-14T10:35:18.595Z,16.01
2016-10-14T10:36:18.302Z,16.1
2016-10-14T10:37:18.324Z,16.1
2016-10-14T10:38:18.676Z,16.15
2016-10-14T10:39:18.683Z,16.21
2016-10-14T10:40:18.713Z,16.36
2016-10-14T10:41:19.037Z,16.33
2016-10-14T10:42:18.454Z,16.28
2016-10-14T10:43:19.083Z,16.24
2016-10-14T10:44:18.479Z,16.26
2016-10-14T10:45:18.492Z,16.31
2016-10-14T10:46:18.840Z,16.29
2016-10-14T10:47:18.538Z,16.39
2016-10-14T10:48:18.560Z,16.41
2016-10-14T10:49:18.921Z,16.41
2016-10-14T10:50:18.611Z,16.47
2016-10-14T10:51:18.943Z,16.42
2016-10-14T10:52:19.282Z,16.32
2016-10-14T10:53:18.984Z,16.32
2016-10-14T10:54:18.690Z,16.39
2016-10-14T10:55:19.033Z,16.38
2016-10-14T10:56:19.363Z,16.35
2016-10-14T10:57:19.069Z,16.36
2016-10-14T10:58:19.415Z,16.38
2016-10-14T10:59:19.438Z,16.41
2016-10-14T11:00:18.821Z,16.43
2016-10-14T11:01:19.471Z,16.47
2016-10-14T11:02:18.865Z,16.5
2016-10-14T11:03:18.892Z,16.38
2016-10-14T11:04:19.223Z,16.38
2016-10-14T11:05:18.950Z,16.36
2016-10-14T11:06:19.275Z,16.47
2016-10-14T11:07:19.608Z,16.41
2016-10-14T11:08:19.635Z,16.39
2016-10-14T11:09:19.335Z,16.43
2016-10-14T11:10:19.684Z,16.51
2016-10-14T11:11:19.690Z,16.46
2016-10-14T11:12:19.724Z,16.38
2016-10-14T11:13:19.107Z,16.5
2016-10-14T11:14:19.441Z,16.5
2016-10-14T11:15:19.471Z,16.54
2016-10-14T11:16:19.806Z,16.65
2016-10-14T11:17:19.191Z,16.58
2016-10-14T11:18:19.535Z,16.58
2016-10-14T11:19:19.880Z,16.54
2016-10-14T11:20:19.571Z,16.61
2016-10-14T11:21:19.595Z,16.64
2016-10-14T11:22:19.624Z,16.69
2016-10-14T11:23:19.644Z,16.61
2016-10-14T11:24:19.668Z,16.54
2016-10-14T11:25:19.366Z,16.65
2016-10-14T11:26:19.712Z,16.57
2016-10-14T11:27:19.731Z,16.53
2016-10-14T11:28:20.062Z,16.54
2016-10-14T11:29:19.773Z,16.53
2016-10-14T11:30:19.474Z,16.54
2016-10-14T11:31:20.133Z,16.56
2016-10-14T11:32:19.529Z,16.57
2016-10-14T11:33:19.856Z,16.56
2016-10-14T11:34:19.878Z,16.58
2016-10-14T11:35:19.596Z,16.51
2016-10-14T11:36:19.926Z,16.61
2016-10-14T11:37:19.949Z,16.58
2016-10-14T11:38:19.970Z,16.64
2016-10-14T11:39:19.673Z,16.69
2016-10-14T11:40:20.018Z,16.74
2016-10-14T11:41:20.367Z,16.65
2016-10-14T11:42:20.384Z,16.57
2016-10-14T11:43:19.762Z,16.58
2016-10-14T11:44:20.108Z,16.64
2016-10-14T11:45:20.120Z,16.68
2016-10-14T11:46:19.851Z,16.68
2016-10-14T11:47:20.481Z,16.74
2016-10-14T11:48:20.193Z,16.74
2016-10-14T11:49:20.524Z,16.76
2016-10-14T11:50:19.934Z,16.75
2016-10-14T11:51:20.565Z,16.76
2016-10-14T11:52:20.287Z,16.78
2016-10-14T11:53:20.294Z,16.81
2016-10-14T11:54:20.319Z,16.87
2016-10-14T11:55:20.024Z,16.78
2016-10-14T11:56:20.675Z,16.84
2016-10-14T11:57:20.396Z,16.93
2016-10-14T11:58:20.115Z,16.89
2016-10-14T11:59:20.427Z,16.91
2016-10-14T12:00:20.456Z,16.99
2016-10-14T12:01:20.157Z,16.97
2016-10-14T12:02:20.514Z,17.01
2016-10-14T12:03:20.512Z,16.97
2016-10-14T12:04:20.865Z,16.94
2016-10-14T12:05:20.887Z,17.08
2016-10-14T12:06:20.269Z,16.93
2016-10-14T12:07:20.291Z,17.04
2016-10-14T12:08:20.312Z,16.96
2016-10-14T12:09:20.648Z,16.93
2016-10-14T12:10:20.356Z,16.94
2016-10-14T12:11:21.008Z,17.05
2016-10-14T12:12:20.721Z,17.08
2016-10-14T12:13:21.056Z,17.05
2016-10-14T12:14:20.444Z,17.02
2016-10-14T12:15:20.780Z,17.11
2016-10-14T12:16:21.158Z,17.14
2016-10-14T12:17:20.841Z,17.23
2016-10-14T12:18:20.853Z,17.22
2016-10-14T12:19:20.873Z,17.27
2016-10-14T12:20:20.588Z,17.26
2016-10-14T12:21:20.604Z,17.33
2016-10-14T12:22:21.276Z,17.26
2016-10-14T12:23:20.648Z,17.34
2016-10-14T12:24:20.986Z,17.27
2016-10-14T12:25:20.691Z,17.29
2016-10-14T12:26:21.028Z,17.27
2016-10-14T12:27:20.738Z,17.36
2016-10-14T12:28:21.081Z,17.29
2016-10-14T12:29:21.125Z,17.45
2016-10-14T12:30:20.880Z,17.34
2016-10-14T12:31:21.143Z,17.3
2016-10-14T12:32:20.851Z,17.29
2016-10-14T12:33:20.865Z,17.3
2016-10-14T12:34:21.210Z,17.27
2016-10-14T12:35:20.928Z,17.3
2016-10-14T12:36:21.282Z,17.33
2016-10-14T12:37:20.964Z,17.27
2016-10-14T12:38:21.298Z,17.36
2016-10-14T12:39:21.643Z,17.41
2016-10-14T12:40:21.356Z,17.38
2016-10-14T12:41:21.369Z,17.41
2016-10-14T12:42:21.071Z,17.34
2016-10-14T12:43:21.098Z,17.38
2016-10-14T12:44:21.433Z,17.39
2016-10-14T12:45:21.155Z,17.38
2016-10-14T12:46:21.799Z,17.46
2016-10-14T12:47:21.500Z,17.52
2016-10-14T12:48:21.525Z,17.46
2016-10-14T12:49:21.877Z,17.46
2016-10-14T12:50:21.879Z,17.39
2016-10-14T12:51:21.619Z,17.38
2016-10-14T12:52:21.624Z,17.42
2016-10-14T12:53:21.327Z,17.44
2016-10-14T12:54:21.983Z,17.51
2016-10-14T12:55:21.371Z,17.46